sensor_id;sensor_type;location;lat;lon;timestamp;P1;durP1;ratioP1;P2;durP2;ratioP2
25049;SDS011;13046;49.814;9.918;2023-02-01T00:02:15;10.70;;;8.25;;
25049;SDS011;13046;49.814;9.918;2023-02-01T00:04:41;9.70;;;8.75;;
25049;SDS011;13046;49.814;9.918;2023-02-01T00:07:07;10.50;;;8.55;;
25049;SDS011;13046;49.814;9.918;2023-02-01T00:09:32;12.27;;;8.50;;
25049;SDS011;13046;49.814;9.918;2023-02-01T00:11:58;8.98;;;8.05;;
25049;SDS011;13046;49.814;9.918;2023-02-01T00:14:26;8.70;;;7.82;;
25049;SDS011;13046;49.814;9.918;2023-02-01T00:16:52;11.88;;;10.02;;
25049;SDS011;13046;49.814;9.918;2023-02-01T00:19:18;10.55;;;9.13;;
25049;SDS011;13046;49.814;9.918;2023-02-01T00:21:44;10.82;;;9.38;;
25049;SDS011;13046;49.814;9.918;2023-02-01T00:24:11;9.90;;;8.77;;
25049;SDS011;13046;49.814;9.918;2023-02-01T00:26:38;10.77;;;9.13;;
25049;SDS011;13046;49.814;9.918;2023-02-01T00:29:08;9.88;;;8.95;;
25049;SDS011;13046;49.814;9.918;2023-02-01T00:34:06;8.75;;;7.88;;
25049;SDS011;13046;49.814;9.918;2023-02-01T00:36:32;8.98;;;8.05;;
25049;SDS011;13046;49.814;9.918;2023-02-01T00:38:58;8.25;;;7.15;;
25049;SDS011;13046;49.814;9.918;2023-02-01T00:41:24;8.48;;;7.18;;
25049;SDS011;13046;49.814;9.918;2023-02-01T00:43:50;7.63;;;6.85;;
25049;SDS011;13046;49.814;9.918;2023-02-01T00:46:16;8.13;;;7.30;;
25049;SDS011;13046;49.814;9.918;2023-02-01T00:48:43;7.43;;;6.65;;
25049;SDS011;13046;49.814;9.918;2023-02-01T00:51:11;7.65;;;6.85;;
25049;SDS011;13046;49.814;9.918;2023-02-01T00:53:38;7.15;;;6.43;;
25049;SDS011;13046;49.814;9.918;2023-02-01T00:56:05;7.07;;;6.47;;
25049;SDS011;13046;49.814;9.918;2023-02-01T00:58:31;7.47;;;6.78;;
25049;SDS011;13046;49.814;9.918;2023-02-01T01:03:38;7.47;;;6.88;;
25049;SDS011;13046;49.814;9.918;2023-02-01T01:06:07;8.02;;;6.38;;
25049;SDS011;13046;49.814;9.918;2023-02-01T01:08:35;10.65;;;6.65;;
25049;SDS011;13046;49.814;9.918;2023-02-01T01:11:12;6.75;;;6.13;;
25049;SDS011;13046;49.814;9.918;2023-02-01T01:13:42;7.65;;;6.95;;
25049;SDS011;13046;49.814;9.918;2023-02-01T01:16:11;7.97;;;6.90;;
25049;SDS011;13046;49.814;9.918;2023-02-01T01:18:37;7.95;;;6.70;;
25049;SDS011;13046;49.814;9.918;2023-02-01T01:21:04;7.43;;;6.68;;
25049;SDS011;13046;49.814;9.918;2023-02-01T01:23:31;7.38;;;6.25;;
25049;SDS011;13046;49.814;9.918;2023-02-01T01:25:56;9.52;;;6.95;;
25049;SDS011;13046;49.814;9.918;2023-02-01T01:28:22;7.13;;;6.43;;
25049;SDS011;13046;49.814;9.918;2023-02-01T01:30:48;8.95;;;6.60;;
25049;SDS011;13046;49.814;9.918;2023-02-01T01:33:14;7.53;;;6.85;;
25049;SDS011;13046;49.814;9.918;2023-02-01T01:35:39;8.02;;;6.70;;
25049;SDS011;13046;49.814;9.918;2023-02-01T01:38:06;9.30;;;6.40;;
25049;SDS011;13046;49.814;9.918;2023-02-01T01:40:34;8.55;;;6.78;;
25049;SDS011;13046;49.814;9.918;2023-02-01T01:43:00;9.75;;;8.30;;
25049;SDS011;13046;49.814;9.918;2023-02-01T01:45:29;8.10;;;7.30;;
25049;SDS011;13046;49.814;9.918;2023-02-01T01:48:04;7.90;;;7.03;;
25049;SDS011;13046;49.814;9.918;2023-02-01T01:50:59;8.52;;;7.75;;
25049;SDS011;13046;49.814;9.918;2023-02-01T01:53:28;7.75;;;6.88;;
25049;SDS011;13046;49.814;9.918;2023-02-01T01:56:02;6.85;;;6.15;;
25049;SDS011;13046;49.814;9.918;2023-02-01T01:58:28;7.57;;;6.75;;
25049;SDS011;13046;49.814;9.918;2023-02-01T02:00:55;7.93;;;6.72;;
25049;SDS011;13046;49.814;9.918;2023-02-01T02:03:22;7.18;;;5.65;;
25049;SDS011;13046;49.814;9.918;2023-02-01T02:05:52;8.43;;;6.53;;
25049;SDS011;13046;49.814;9.918;2023-02-01T02:08:20;8.48;;;7.15;;
25049;SDS011;13046;49.814;9.918;2023-02-01T02:10:48;8.32;;;5.70;;
25049;SDS011;13046;49.814;9.918;2023-02-01T02:13:37;8.18;;;6.50;;
25049;SDS011;13046;49.814;9.918;2023-02-01T02:16:15;8.73;;;6.03;;
25049;SDS011;13046;49.814;9.918;2023-02-01T02:27:02;4.68;;;4.25;;
25049;SDS011;13046;49.814;9.918;2023-02-01T02:32:55;8.05;;;4.85;;
25049;SDS011;13046;49.814;9.918;2023-02-01T02:35:45;6.35;;;5.10;;
25049;SDS011;13046;49.814;9.918;2023-02-01T02:38:38;4.20;;;3.30;;
25049;SDS011;13046;49.814;9.918;2023-02-01T02:47:24;9.07;;;6.53;;
25049;SDS011;13046;49.814;9.918;2023-02-01T02:56:01;7.03;;;6.03;;
25049;SDS011;13046;49.814;9.918;2023-02-01T02:58:48;7.80;;;7.05;;
25049;SDS011;13046;49.814;9.918;2023-02-01T03:01:33;8.68;;;6.47;;
25049;SDS011;13046;49.814;9.918;2023-02-01T03:04:18;7.03;;;6.32;;
25049;SDS011;13046;49.814;9.918;2023-02-01T03:06:47;7.55;;;6.57;;
25049;SDS011;13046;49.814;9.918;2023-02-01T03:09:14;10.73;;;7.53;;
25049;SDS011;13046;49.814;9.918;2023-02-01T03:11:52;9.57;;;7.78;;
25049;SDS011;13046;49.814;9.918;2023-02-01T03:14:42;9.52;;;7.00;;
25049;SDS011;13046;49.814;9.918;2023-02-01T03:17:13;9.23;;;8.32;;
25049;SDS011;13046;49.814;9.918;2023-02-01T03:19:44;12.93;;;8.30;;
25049;SDS011;13046;49.814;9.918;2023-02-01T03:22:15;9.43;;;8.20;;
25049;SDS011;13046;49.814;9.918;2023-02-01T03:24:47;10.35;;;9.23;;
25049;SDS011;13046;49.814;9.918;2023-02-01T03:27:20;10.50;;;9.00;;
25049;SDS011;13046;49.814;9.918;2023-02-01T03:32:49;9.13;;;7.70;;
25049;SDS011;13046;49.814;9.918;2023-02-01T03:38:01;8.82;;;7.97;;
25049;SDS011;13046;49.814;9.918;2023-02-01T03:40:49;8.85;;;7.30;;
25049;SDS011;13046;49.814;9.918;2023-02-01T03:43:21;9.55;;;7.97;;
25049;SDS011;13046;49.814;9.918;2023-02-01T03:45:52;8.98;;;7.07;;
25049;SDS011;13046;49.814;9.918;2023-02-01T03:48:22;8.80;;;7.35;;
25049;SDS011;13046;49.814;9.918;2023-02-01T03:50:49;7.22;;;6.50;;
25049;SDS011;13046;49.814;9.918;2023-02-01T03:53:19;11.48;;;7.22;;
25049;SDS011;13046;49.814;9.918;2023-02-01T03:55:48;8.65;;;6.93;;
25049;SDS011;13046;49.814;9.918;2023-02-01T03:58:16;8.48;;;6.53;;
25049;SDS011;13046;49.814;9.918;2023-02-01T04:00:53;6.70;;;5.85;;
25049;SDS011;13046;49.814;9.918;2023-02-01T04:03:22;6.78;;;6.05;;
25049;SDS011;13046;49.814;9.918;2023-02-01T04:05:49;6.13;;;5.47;;
25049;SDS011;13046;49.814;9.918;2023-02-01T04:08:15;5.85;;;4.85;;
25049;SDS011;13046;49.814;9.918;2023-02-01T04:10:41;7.60;;;5.00;;
25049;SDS011;13046;49.814;9.918;2023-02-01T04:13:07;5.60;;;4.45;;
25049;SDS011;13046;49.814;9.918;2023-02-01T04:15:32;5.50;;;4.57;;
25049;SDS011;13046;49.814;9.918;2023-02-01T04:17:59;9.90;;;4.65;;
25049;SDS011;13046;49.814;9.918;2023-02-01T04:20:25;8.50;;;3.78;;
25049;SDS011;13046;49.814;9.918;2023-02-01T04:22:51;7.13;;;3.88;;
25049;SDS011;13046;49.814;9.918;2023-02-01T04:25:16;6.32;;;3.40;;
25049;SDS011;13046;49.814;9.918;2023-02-01T04:27:45;4.38;;;2.83;;
25049;SDS011;13046;49.814;9.918;2023-02-01T04:30:11;20.77;;;6.70;;
25049;SDS011;13046;49.814;9.918;2023-02-01T04:32:37;10.93;;;3.58;;
25049;SDS011;13046;49.814;9.918;2023-02-01T04:35:03;8.95;;;3.75;;
25049;SDS011;13046;49.814;9.918;2023-02-01T04:37:30;9.32;;;3.65;;
25049;SDS011;13046;49.814;9.918;2023-02-01T04:39:55;8.73;;;3.20;;
25049;SDS011;13046;49.814;9.918;2023-02-01T04:42:21;8.50;;;3.70;;
25049;SDS011;13046;49.814;9.918;2023-02-01T04:44:46;8.68;;;4.13;;
25049;SDS011;13046;49.814;9.918;2023-02-01T04:47:12;11.55;;;4.22;;
25049;SDS011;13046;49.814;9.918;2023-02-01T04:49:39;7.50;;;3.55;;
25049;SDS011;13046;49.814;9.918;2023-02-01T04:52:05;14.75;;;3.25;;
25049;SDS011;13046;49.814;9.918;2023-02-01T04:54:30;6.82;;;3.65;;
25049;SDS011;13046;49.814;9.918;2023-02-01T04:56:56;6.13;;;3.75;;
25049;SDS011;13046;49.814;9.918;2023-02-01T04:59:22;10.63;;;4.15;;
25049;SDS011;13046;49.814;9.918;2023-02-01T05:01:47;16.38;;;3.97;;
25049;SDS011;13046;49.814;9.918;2023-02-01T05:04:13;10.40;;;3.63;;
25049;SDS011;13046;49.814;9.918;2023-02-01T05:06:39;12.45;;;4.47;;
25049;SDS011;13046;49.814;9.918;2023-02-01T05:09:04;7.95;;;3.90;;
25049;SDS011;13046;49.814;9.918;2023-02-01T05:11:30;12.93;;;3.72;;
25049;SDS011;13046;49.814;9.918;2023-02-01T05:14:14;12.65;;;3.70;;
25049;SDS011;13046;49.814;9.918;2023-02-01T05:16:40;8.98;;;3.75;;
25049;SDS011;13046;49.814;9.918;2023-02-01T05:19:06;10.10;;;2.92;;
25049;SDS011;13046;49.814;9.918;2023-02-01T05:21:31;9.98;;;2.72;;
25049;SDS011;13046;49.814;9.918;2023-02-01T05:23:57;6.07;;;2.38;;
25049;SDS011;13046;49.814;9.918;2023-02-01T05:26:35;5.93;;;2.20;;
25049;SDS011;13046;49.814;9.918;2023-02-01T05:29:01;4.35;;;1.95;;
25049;SDS011;13046;49.814;9.918;2023-02-01T05:31:27;5.80;;;2.47;;
25049;SDS011;13046;49.814;9.918;2023-02-01T05:33:53;4.63;;;2.35;;
25049;SDS011;13046;49.814;9.918;2023-02-01T05:36:19;2.35;;;2.15;;
25049;SDS011;13046;49.814;9.918;2023-02-01T05:38:44;4.78;;;2.92;;
25049;SDS011;13046;49.814;9.918;2023-02-01T05:41:10;6.50;;;2.65;;
25049;SDS011;13046;49.814;9.918;2023-02-01T05:43:36;3.90;;;2.17;;
25049;SDS011;13046;49.814;9.918;2023-02-01T05:46:01;3.05;;;1.85;;
25049;SDS011;13046;49.814;9.918;2023-02-01T05:48:27;3.38;;;2.53;;
25049;SDS011;13046;49.814;9.918;2023-02-01T05:50:53;6.85;;;3.55;;
25049;SDS011;13046;49.814;9.918;2023-02-01T05:53:18;6.40;;;2.55;;
25049;SDS011;13046;49.814;9.918;2023-02-01T05:55:44;2.80;;;1.90;;
25049;SDS011;13046;49.814;9.918;2023-02-01T05:58:10;5.38;;;2.63;;
25049;SDS011;13046;49.814;9.918;2023-02-01T06:00:37;6.35;;;3.40;;
25049;SDS011;13046;49.814;9.918;2023-02-01T06:03:03;5.82;;;2.70;;
25049;SDS011;13046;49.814;9.918;2023-02-01T06:05:29;6.35;;;3.60;;
25049;SDS011;13046;49.814;9.918;2023-02-01T06:07:55;16.27;;;10.65;;
25049;SDS011;13046;49.814;9.918;2023-02-01T06:10:21;7.63;;;5.32;;
25049;SDS011;13046;49.814;9.918;2023-02-01T06:12:46;6.20;;;4.63;;
25049;SDS011;13046;49.814;9.918;2023-02-01T06:15:12;9.60;;;5.57;;
25049;SDS011;13046;49.814;9.918;2023-02-01T06:17:40;4.03;;;3.55;;
25049;SDS011;13046;49.814;9.918;2023-02-01T06:20:08;9.93;;;5.00;;
25049;SDS011;13046;49.814;9.918;2023-02-01T06:22:34;7.13;;;4.35;;
25049;SDS011;13046;49.814;9.918;2023-02-01T06:25:01;6.43;;;5.35;;
25049;SDS011;13046;49.814;9.918;2023-02-01T06:27:27;12.43;;;5.22;;
25049;SDS011;13046;49.814;9.918;2023-02-01T06:29:53;5.53;;;3.78;;
25049;SDS011;13046;49.814;9.918;2023-02-01T06:32:20;5.63;;;3.70;;
25049;SDS011;13046;49.814;9.918;2023-02-01T06:34:46;6.55;;;4.10;;
25049;SDS011;13046;49.814;9.918;2023-02-01T06:37:14;6.60;;;3.95;;
25049;SDS011;13046;49.814;9.918;2023-02-01T06:39:40;8.75;;;3.70;;
25049;SDS011;13046;49.814;9.918;2023-02-01T06:42:05;7.18;;;4.25;;
25049;SDS011;13046;49.814;9.918;2023-02-01T06:44:31;7.03;;;4.70;;
25049;SDS011;13046;49.814;9.918;2023-02-01T06:46:57;7.20;;;4.72;;
25049;SDS011;13046;49.814;9.918;2023-02-01T06:49:22;7.47;;;4.00;;
25049;SDS011;13046;49.814;9.918;2023-02-01T06:51:48;7.18;;;4.70;;
25049;SDS011;13046;49.814;9.918;2023-02-01T06:54:14;7.10;;;4.55;;
25049;SDS011;13046;49.814;9.918;2023-02-01T06:56:40;9.20;;;4.45;;
25049;SDS011;13046;49.814;9.918;2023-02-01T06:59:06;7.03;;;4.20;;
25049;SDS011;13046;49.814;9.918;2023-02-01T07:01:32;7.47;;;4.22;;
25049;SDS011;13046;49.814;9.918;2023-02-01T07:03:58;7.07;;;4.30;;
25049;SDS011;13046;49.814;9.918;2023-02-01T07:06:24;10.80;;;5.70;;
25049;SDS011;13046;49.814;9.918;2023-02-01T07:08:50;8.25;;;4.75;;
25049;SDS011;13046;49.814;9.918;2023-02-01T07:11:19;11.82;;;5.63;;
25049;SDS011;13046;49.814;9.918;2023-02-01T07:13:45;14.32;;;5.75;;
25049;SDS011;13046;49.814;9.918;2023-02-01T07:16:11;11.07;;;6.30;;
25049;SDS011;13046;49.814;9.918;2023-02-01T07:18:39;12.73;;;5.88;;
25049;SDS011;13046;49.814;9.918;2023-02-01T07:21:05;9.82;;;5.15;;
25049;SDS011;13046;49.814;9.918;2023-02-01T07:23:31;13.13;;;5.85;;
25049;SDS011;13046;49.814;9.918;2023-02-01T07:25:57;9.43;;;4.88;;
25049;SDS011;13046;49.814;9.918;2023-02-01T07:28:25;11.88;;;6.70;;
25049;SDS011;13046;49.814;9.918;2023-02-01T07:30:52;21.98;;;10.05;;
25049;SDS011;13046;49.814;9.918;2023-02-01T07:33:22;12.35;;;7.38;;
25049;SDS011;13046;49.814;9.918;2023-02-01T07:35:49;16.17;;;6.43;;
25049;SDS011;13046;49.814;9.918;2023-02-01T07:38:16;13.48;;;6.82;;
25049;SDS011;13046;49.814;9.918;2023-02-01T07:40:42;11.90;;;5.93;;
25049;SDS011;13046;49.814;9.918;2023-02-01T07:43:08;15.43;;;7.25;;
25049;SDS011;13046;49.814;9.918;2023-02-01T07:45:37;17.45;;;6.95;;
25049;SDS011;13046;49.814;9.918;2023-02-01T07:48:02;18.40;;;6.22;;
25049;SDS011;13046;49.814;9.918;2023-02-01T07:50:29;10.60;;;6.30;;
25049;SDS011;13046;49.814;9.918;2023-02-01T07:52:55;17.90;;;8.95;;
25049;SDS011;13046;49.814;9.918;2023-02-01T07:55:23;14.63;;;6.05;;
25049;SDS011;13046;49.814;9.918;2023-02-01T07:57:49;15.32;;;5.57;;
25049;SDS011;13046;49.814;9.918;2023-02-01T08:00:15;12.48;;;5.97;;
25049;SDS011;13046;49.814;9.918;2023-02-01T08:03:13;15.05;;;6.78;;
25049;SDS011;13046;49.814;9.918;2023-02-01T08:05:39;12.00;;;5.20;;
25049;SDS011;13046;49.814;9.918;2023-02-01T08:08:04;16.98;;;6.70;;
25049;SDS011;13046;49.814;9.918;2023-02-01T08:10:31;21.55;;;6.65;;
25049;SDS011;13046;49.814;9.918;2023-02-01T08:12:57;14.45;;;5.72;;
25049;SDS011;13046;49.814;9.918;2023-02-01T08:15:24;8.60;;;5.47;;
25049;SDS011;13046;49.814;9.918;2023-02-01T08:17:52;18.65;;;6.07;;
25049;SDS011;13046;49.814;9.918;2023-02-01T08:20:19;8.75;;;5.63;;
25049;SDS011;13046;49.814;9.918;2023-02-01T08:22:47;13.60;;;5.20;;
25049;SDS011;13046;49.814;9.918;2023-02-01T08:25:13;11.30;;;5.32;;
25049;SDS011;13046;49.814;9.918;2023-02-01T08:27:38;7.97;;;5.18;;
25049;SDS011;13046;49.814;9.918;2023-02-01T08:30:04;13.45;;;6.45;;
25049;SDS011;13046;49.814;9.918;2023-02-01T08:32:32;16.60;;;6.05;;
25049;SDS011;13046;49.814;9.918;2023-02-01T08:34:59;13.60;;;6.00;;
25049;SDS011;13046;49.814;9.918;2023-02-01T08:37:24;9.65;;;4.97;;
25049;SDS011;13046;49.814;9.918;2023-02-01T08:39:50;11.13;;;3.92;;
25049;SDS011;13046;49.814;9.918;2023-02-01T08:42:16;10.98;;;4.65;;
25049;SDS011;13046;49.814;9.918;2023-02-01T08:45:01;15.00;;;4.63;;
25049;SDS011;13046;49.814;9.918;2023-02-01T08:47:28;11.52;;;4.78;;
25049;SDS011;13046;49.814;9.918;2023-02-01T08:49:54;10.85;;;4.30;;
25049;SDS011;13046;49.814;9.918;2023-02-01T08:52:19;7.43;;;4.43;;
25049;SDS011;13046;49.814;9.918;2023-02-01T08:54:46;14.70;;;5.03;;
25049;SDS011;13046;49.814;9.918;2023-02-01T08:57:11;13.68;;;4.00;;
25049;SDS011;13046;49.814;9.918;2023-02-01T08:59:37;14.57;;;4.90;;
25049;SDS011;13046;49.814;9.918;2023-02-01T09:02:03;16.65;;;4.63;;
25049;SDS011;13046;49.814;9.918;2023-02-01T09:04:28;6.68;;;3.90;;
25049;SDS011;13046;49.814;9.918;2023-02-01T09:06:54;8.95;;;4.70;;
25049;SDS011;13046;49.814;9.918;2023-02-01T09:09:22;11.85;;;5.53;;
25049;SDS011;13046;49.814;9.918;2023-02-01T09:11:48;9.75;;;4.57;;
25049;SDS011;13046;49.814;9.918;2023-02-01T09:14:15;11.40;;;4.65;;
25049;SDS011;13046;49.814;9.918;2023-02-01T09:16:41;11.98;;;4.50;;
25049;SDS011;13046;49.814;9.918;2023-02-01T09:19:07;12.35;;;4.70;;
25049;SDS011;13046;49.814;9.918;2023-02-01T09:21:33;10.15;;;5.35;;
25049;SDS011;13046;49.814;9.918;2023-02-01T09:23:59;13.95;;;5.82;;
25049;SDS011;13046;49.814;9.918;2023-02-01T09:26:24;16.15;;;7.13;;
25049;SDS011;13046;49.814;9.918;2023-02-01T09:28:50;11.85;;;4.97;;
25049;SDS011;13046;49.814;9.918;2023-02-01T09:31:16;13.52;;;5.40;;
25049;SDS011;13046;49.814;9.918;2023-02-01T09:33:42;12.43;;;5.13;;
25049;SDS011;13046;49.814;9.918;2023-02-01T09:36:07;12.23;;;6.43;;
25049;SDS011;13046;49.814;9.918;2023-02-01T09:38:33;13.20;;;5.45;;
25049;SDS011;13046;49.814;9.918;2023-02-01T09:40:59;16.42;;;5.20;;
25049;SDS011;13046;49.814;9.918;2023-02-01T09:48:37;14.18;;;6.13;;
25049;SDS011;13046;49.814;9.918;2023-02-01T09:51:06;8.25;;;4.50;;
25049;SDS011;13046;49.814;9.918;2023-02-01T09:53:40;8.85;;;4.50;;
25049;SDS011;13046;49.814;9.918;2023-02-01T09:56:42;17.67;;;5.18;;
25049;SDS011;13046;49.814;9.918;2023-02-01T10:01:30;22.75;;;5.32;;
25049;SDS011;13046;49.814;9.918;2023-02-01T10:04:07;7.53;;;4.10;;
25049;SDS011;13046;49.814;9.918;2023-02-01T10:14:54;16.15;;;3.90;;
25049;SDS011;13046;49.814;9.918;2023-02-01T10:23:23;13.43;;;5.05;;
25049;SDS011;13046;49.814;9.918;2023-02-01T10:28:49;13.90;;;5.40;;
25049;SDS011;13046;49.814;9.918;2023-02-01T10:31:17;12.23;;;3.63;;
25049;SDS011;13046;49.814;9.918;2023-02-01T10:33:44;7.35;;;4.70;;
25049;SDS011;13046;49.814;9.918;2023-02-01T10:36:16;7.10;;;4.57;;
25049;SDS011;13046;49.814;9.918;2023-02-01T10:39:02;10.75;;;3.65;;
25049;SDS011;13046;49.814;9.918;2023-02-01T10:41:36;13.27;;;4.75;;
25049;SDS011;13046;49.814;9.918;2023-02-01T10:44:05;12.93;;;3.95;;
25049;SDS011;13046;49.814;9.918;2023-02-01T10:46:38;13.23;;;3.08;;
25049;SDS011;13046;49.814;9.918;2023-02-01T10:49:04;16.92;;;3.38;;
25049;SDS011;13046;49.814;9.918;2023-02-01T10:51:46;11.80;;;4.30;;
25049;SDS011;13046;49.814;9.918;2023-02-01T10:54:21;13.85;;;4.07;;
25049;SDS011;13046;49.814;9.918;2023-02-01T10:56:57;12.55;;;3.80;;
25049;SDS011;13046;49.814;9.918;2023-02-01T10:59:27;11.48;;;4.55;;
25049;SDS011;13046;49.814;9.918;2023-02-01T11:01:58;12.77;;;4.68;;
25049;SDS011;13046;49.814;9.918;2023-02-01T11:04:26;10.10;;;4.40;;
25049;SDS011;13046;49.814;9.918;2023-02-01T11:07:15;12.23;;;4.78;;
25049;SDS011;13046;49.814;9.918;2023-02-01T11:09:48;14.10;;;3.90;;
25049;SDS011;13046;49.814;9.918;2023-02-01T11:12:27;9.15;;;4.32;;
25049;SDS011;13046;49.814;9.918;2023-02-01T11:15:11;19.85;;;5.15;;
25049;SDS011;13046;49.814;9.918;2023-02-01T11:17:44;10.02;;;4.45;;
25049;SDS011;13046;49.814;9.918;2023-02-01T11:20:19;14.20;;;4.53;;
25049;SDS011;13046;49.814;9.918;2023-02-01T11:23:08;12.27;;;4.78;;
25049;SDS011;13046;49.814;9.918;2023-02-01T11:25:52;7.90;;;4.25;;
25049;SDS011;13046;49.814;9.918;2023-02-01T11:28:32;14.10;;;4.15;;
25049;SDS011;13046;49.814;9.918;2023-02-01T11:31:01;15.23;;;4.65;;
25049;SDS011;13046;49.814;9.918;2023-02-01T11:33:31;14.98;;;3.78;;
25049;SDS011;13046;49.814;9.918;2023-02-01T11:36:01;5.57;;;3.15;;
25049;SDS011;13046;49.814;9.918;2023-02-01T11:38:37;3.85;;;3.00;;
25049;SDS011;13046;49.814;9.918;2023-02-01T11:41:11;14.80;;;4.45;;
25049;SDS011;13046;49.814;9.918;2023-02-01T11:43:55;7.40;;;3.88;;
25049;SDS011;13046;49.814;9.918;2023-02-01T11:46:28;7.15;;;3.25;;
25049;SDS011;13046;49.814;9.918;2023-02-01T11:48:56;9.05;;;4.43;;
25049;SDS011;13046;49.814;9.918;2023-02-01T11:51:42;8.18;;;3.08;;
25049;SDS011;13046;49.814;9.918;2023-02-01T11:54:53;5.90;;;3.10;;
25049;SDS011;13046;49.814;9.918;2023-02-01T12:08:35;8.25;;;3.38;;
25049;SDS011;13046;49.814;9.918;2023-02-01T12:11:24;14.68;;;3.75;;
25049;SDS011;13046;49.814;9.918;2023-02-01T12:14:02;10.77;;;4.65;;
25049;SDS011;13046;49.814;9.918;2023-02-01T12:16:51;7.28;;;3.17;;
25049;SDS011;13046;49.814;9.918;2023-02-01T12:22:22;12.90;;;5.68;;
25049;SDS011;13046;49.814;9.918;2023-02-01T12:25:16;13.02;;;6.47;;
25049;SDS011;13046;49.814;9.918;2023-02-01T12:28:09;7.32;;;3.30;;
25049;SDS011;13046;49.814;9.918;2023-02-01T12:36:25;8.13;;;2.70;;
25049;SDS011;13046;49.814;9.918;2023-02-01T12:39:11;11.77;;;3.70;;
25049;SDS011;13046;49.814;9.918;2023-02-01T12:44:44;7.93;;;3.05;;
25049;SDS011;13046;49.814;9.918;2023-02-01T12:47:29;9.20;;;3.53;;
25049;SDS011;13046;49.814;9.918;2023-02-01T12:52:50;5.90;;;2.95;;
25049;SDS011;13046;49.814;9.918;2023-02-01T12:58:20;12.75;;;3.92;;
25049;SDS011;13046;49.814;9.918;2023-02-01T13:01:02;7.55;;;3.63;;
25049;SDS011;13046;49.814;9.918;2023-02-01T13:03:42;12.32;;;3.97;;
25049;SDS011;13046;49.814;9.918;2023-02-01T13:06:25;6.82;;;3.25;;
25049;SDS011;13046;49.814;9.918;2023-02-01T13:09:03;11.65;;;3.97;;
25049;SDS011;13046;49.814;9.918;2023-02-01T13:11:44;7.28;;;3.20;;
25049;SDS011;13046;49.814;9.918;2023-02-01T13:14:22;7.97;;;2.85;;
25049;SDS011;13046;49.814;9.918;2023-02-01T13:16:59;7.13;;;3.08;;
25049;SDS011;13046;49.814;9.918;2023-02-01T13:22:22;18.70;;;8.82;;
25049;SDS011;13046;49.814;9.918;2023-02-01T13:24:54;13.73;;;6.28;;
25049;SDS011;13046;49.814;9.918;2023-02-01T13:27:27;12.70;;;6.45;;
25049;SDS011;13046;49.814;9.918;2023-02-01T13:29:59;10.73;;;4.47;;
25049;SDS011;13046;49.814;9.918;2023-02-01T13:32:53;7.20;;;4.22;;
25049;SDS011;13046;49.814;9.918;2023-02-01T13:35:32;12.40;;;4.53;;
25049;SDS011;13046;49.814;9.918;2023-02-01T13:43:23;12.60;;;5.00;;
25049;SDS011;13046;49.814;9.918;2023-02-01T13:45:55;24.75;;;9.93;;
25049;SDS011;13046;49.814;9.918;2023-02-01T13:48:28;12.23;;;3.92;;
25049;SDS011;13046;49.814;9.918;2023-02-01T13:51:00;8.70;;;3.22;;
25049;SDS011;13046;49.814;9.918;2023-02-01T13:58:31;9.38;;;3.67;;
25049;SDS011;13046;49.814;9.918;2023-02-01T14:03:58;11.98;;;4.00;;
25049;SDS011;13046;49.814;9.918;2023-02-01T14:16:41;9.13;;;3.58;;
25049;SDS011;13046;49.814;9.918;2023-02-01T14:19:08;9.85;;;3.35;;
25049;SDS011;13046;49.814;9.918;2023-02-01T14:21:48;11.45;;;4.13;;
25049;SDS011;13046;49.814;9.918;2023-02-01T14:24:24;15.52;;;3.10;;
25049;SDS011;13046;49.814;9.918;2023-02-01T14:26:55;9.75;;;4.00;;
25049;SDS011;13046;49.814;9.918;2023-02-01T14:32:15;5.57;;;3.72;;
25049;SDS011;13046;49.814;9.918;2023-02-01T14:42:30;16.90;;;3.63;;
25049;SDS011;13046;49.814;9.918;2023-02-01T14:50:47;13.55;;;4.35;;
25049;SDS011;13046;49.814;9.918;2023-02-01T15:00:53;9.10;;;3.42;;
25049;SDS011;13046;49.814;9.918;2023-02-01T15:03:33;11.57;;;3.47;;
25049;SDS011;13046;49.814;9.918;2023-02-01T15:06:32;14.65;;;4.28;;
25049;SDS011;13046;49.814;9.918;2023-02-01T15:09:13;11.68;;;3.10;;
25049;SDS011;13046;49.814;9.918;2023-02-01T15:17:39;9.45;;;3.10;;
25049;SDS011;13046;49.814;9.918;2023-02-01T15:20:13;12.80;;;2.78;;
25049;SDS011;13046;49.814;9.918;2023-02-01T15:22:40;8.98;;;3.17;;
25049;SDS011;13046;49.814;9.918;2023-02-01T15:25:17;10.00;;;3.35;;
25049;SDS011;13046;49.814;9.918;2023-02-01T15:27:44;12.63;;;3.42;;
25049;SDS011;13046;49.814;9.918;2023-02-01T15:30:18;12.05;;;3.97;;
25049;SDS011;13046;49.814;9.918;2023-02-01T15:32:52;15.00;;;4.50;;
25049;SDS011;13046;49.814;9.918;2023-02-01T15:40:56;10.55;;;2.72;;
25049;SDS011;13046;49.814;9.918;2023-02-01T15:43:31;15.80;;;5.43;;
25049;SDS011;13046;49.814;9.918;2023-02-01T15:46:14;29.58;;;4.75;;
25049;SDS011;13046;49.814;9.918;2023-02-01T15:48:48;8.05;;;3.67;;
25049;SDS011;13046;49.814;9.918;2023-02-01T15:51:19;14.00;;;3.65;;
25049;SDS011;13046;49.814;9.918;2023-02-01T15:53:51;6.68;;;3.72;;
25049;SDS011;13046;49.814;9.918;2023-02-01T15:56:33;12.93;;;4.10;;
25049;SDS011;13046;49.814;9.918;2023-02-01T15:59:02;8.90;;;2.70;;
25049;SDS011;13046;49.814;9.918;2023-02-01T16:01:48;9.05;;;2.95;;
25049;SDS011;13046;49.814;9.918;2023-02-01T16:06:48;8.90;;;2.63;;
25049;SDS011;13046;49.814;9.918;2023-02-01T16:09:20;11.52;;;3.95;;
25049;SDS011;13046;49.814;9.918;2023-02-01T16:11:56;15.77;;;6.93;;
25049;SDS011;13046;49.814;9.918;2023-02-01T16:14:23;20.58;;;5.45;;
25049;SDS011;13046;49.814;9.918;2023-02-01T16:16:50;16.95;;;5.75;;
25049;SDS011;13046;49.814;9.918;2023-02-01T16:19:17;10.52;;;4.43;;
25049;SDS011;13046;49.814;9.918;2023-02-01T16:21:43;14.35;;;5.43;;
25049;SDS011;13046;49.814;9.918;2023-02-01T16:24:09;20.75;;;11.85;;
25049;SDS011;13046;49.814;9.918;2023-02-01T16:26:34;8.88;;;4.50;;
25049;SDS011;13046;49.814;9.918;2023-02-01T16:29:00;12.38;;;4.22;;
25049;SDS011;13046;49.814;9.918;2023-02-01T16:31:31;11.13;;;4.78;;
25049;SDS011;13046;49.814;9.918;2023-02-01T16:34:00;11.18;;;4.93;;
25049;SDS011;13046;49.814;9.918;2023-02-01T16:36:26;16.35;;;4.25;;
25049;SDS011;13046;49.814;9.918;2023-02-01T16:38:53;14.65;;;8.98;;
25049;SDS011;13046;49.814;9.918;2023-02-01T16:41:20;23.13;;;12.98;;
25049;SDS011;13046;49.814;9.918;2023-02-01T16:43:51;10.65;;;4.35;;
25049;SDS011;13046;49.814;9.918;2023-02-01T16:46:23;9.85;;;4.22;;
25049;SDS011;13046;49.814;9.918;2023-02-01T16:48:55;8.05;;;3.78;;
25049;SDS011;13046;49.814;9.918;2023-02-01T16:51:23;9.80;;;4.00;;
25049;SDS011;13046;49.814;9.918;2023-02-01T16:53:50;10.43;;;3.63;;
25049;SDS011;13046;49.814;9.918;2023-02-01T16:56:17;9.80;;;4.18;;
25049;SDS011;13046;49.814;9.918;2023-02-01T16:58:45;13.50;;;5.25;;
25049;SDS011;13046;49.814;9.918;2023-02-01T17:01:12;9.82;;;3.75;;
25049;SDS011;13046;49.814;9.918;2023-02-01T17:03:40;10.55;;;3.80;;
25049;SDS011;13046;49.814;9.918;2023-02-01T17:06:09;15.93;;;5.47;;
25049;SDS011;13046;49.814;9.918;2023-02-01T17:08:36;8.13;;;3.72;;
25049;SDS011;13046;49.814;9.918;2023-02-01T17:11:06;11.38;;;4.03;;
25049;SDS011;13046;49.814;9.918;2023-02-01T17:13:32;22.08;;;6.78;;
25049;SDS011;13046;49.814;9.918;2023-02-01T17:16:03;13.40;;;5.78;;
25049;SDS011;13046;49.814;9.918;2023-02-01T17:18:33;12.57;;;3.80;;
25049;SDS011;13046;49.814;9.918;2023-02-01T17:21:00;9.43;;;4.95;;
25049;SDS011;13046;49.814;9.918;2023-02-01T17:23:27;8.27;;;3.72;;
25049;SDS011;13046;49.814;9.918;2023-02-01T17:25:53;11.45;;;4.30;;
25049;SDS011;13046;49.814;9.918;2023-02-01T17:28:19;16.17;;;4.47;;
25049;SDS011;13046;49.814;9.918;2023-02-01T17:30:45;14.88;;;4.10;;
25049;SDS011;13046;49.814;9.918;2023-02-01T17:33:45;13.52;;;4.15;;